Time;durP1;ratioP1;P1;durP2;ratioP2;P2;SDS_P1;SDS_P2;PMS_P1;PMS_P2;Temp;Humidity;BMP_temperature;BMP_pressure;BME280_temperature;BME280_humidity;BME280_pressure;Samples;Min_cycle;Max_cycle;Signal;HPM_P1;HPM_P2
2023/05/10 05:36:28;;;;;;;10.00;1.52;;;16.50;77.30;;;;;;5724394;24;20962;-75
2023/05/10 05:38:54;;;;;;;6.25;1.27;;;16.50;76.70;;;;;;4792709;29;20054;-76
2023/05/10 05:41:21;;;;;;;9.10;1.98;;;16.40;77.50;;;;;;4808101;29;20058;-74
2023/05/10 05:43:47;;;;;;;22.33;3.10;;;16.50;78.00;;;;;;4808470;29;20458;-70
2023/05/10 05:46:12;;;;;;;16.05;2.15;;;16.50;78.50;;;;;;4808612;29;20061;-75
2023/05/10 05:48:38;;;;;;;13.05;2.47;;;16.50;78.30;;;;;;4808549;29;20062;-76
2023/05/10 05:51:04;;;;;;;11.25;2.05;;;16.60;78.50;;;;;;4809292;29;20057;-77
2023/05/10 05:53:29;;;;;;;11.30;2.53;;;16.60;78.90;;;;;;4808856;29;20069;-75
2023/05/10 05:55:57;;;;;;;27.17;3.40;;;16.70;78.70;;;;;;4808621;29;20094;-75
2023/05/10 05:58:24;;;;;;;19.92;2.60;;;16.70;78.40;;;;;;4808724;29;20055;-77
2023/05/10 06:00:51;;;;;;;19.20;3.42;;;16.70;78.30;;;;;;4807794;29;20058;-76
2023/05/10 06:03:18;;;;;;;12.27;2.10;;;16.70;78.20;;;;;;4807115;29;20063;-77
2023/05/10 06:05:44;;;;;;;14.93;2.28;;;16.70;78.10;;;;;;4803692;29;20051;-75
2023/05/10 06:08:10;;;;;;;30.25;3.10;;;16.80;78.00;;;;;;4808189;29;20047;-74
2023/05/10 06:10:36;;;;;;;16.35;2.92;;;16.70;77.90;;;;;;4808726;29;20065;-77
2023/05/10 06:13:02;;;;;;;30.52;4.40;;;16.80;77.90;;;;;;4808368;29;20082;-76
2023/05/10 06:15:27;;;;;;;7.60;1.33;;;16.80;77.80;;;;;;4808159;29;20123;-76
2023/05/10 06:17:53;;;;;;;4.32;0.90;;;16.80;77.60;;;;;;4808227;29;20351;-76
2023/05/10 06:20:19;;;;;;;2.50;0.50;;;16.80;77.30;;;;;;4808836;29;20098;-73
2023/05/10 06:22:45;;;;;;;5.63;0.80;;;16.80;76.90;;;;;;4792486;29;20616;-75
2023/05/10 06:25:11;;;;;;;3.22;0.95;;;16.80;76.90;;;;;;4808054;29;20042;-72
2023/05/10 06:27:37;;;;;;;2.50;0.85;;;16.70;76.70;;;;;;4808286;29;20054;-73
2023/05/10 06:30:03;;;;;;;5.35;0.70;;;16.70;76.50;;;;;;4808835;29;20055;-75
2023/05/10 06:32:29;;;;;;;4.75;0.50;;;16.70;76.50;;;;;;4808369;29;20058;-74
2023/05/10 06:34:55;;;;;;;3.20;0.68;;;16.70;76.50;;;;;;4807934;29;20066;-73
2023/05/10 06:37:20;;;;;;;1.77;0.50;;;16.70;76.40;;;;;;4808012;29;20109;-74
2023/05/10 06:39:46;;;;;;;3.63;0.90;;;16.60;76.40;;;;;;4806717;29;20352;-74
2023/05/10 06:42:12;;;;;;;1.40;0.68;;;16.70;76.40;;;;;;4807766;29;20051;-74
2023/05/10 06:44:37;;;;;;;4.38;0.50;;;16.60;76.40;;;;;;4807683;29;20375;-73
2023/05/10 06:47:03;;;;;;;2.70;0.68;;;16.60;76.30;;;;;;4807889;29;20051;-74
2023/05/10 06:49:29;;;;;;;3.08;0.60;;;16.60;76.30;;;;;;4808235;29;20071;-72
2023/05/10 06:51:55;;;;;;;2.28;0.77;;;16.60;76.30;;;;;;4806468;29;20055;-76
2023/05/10 06:54:22;;;;;;;4.18;1.20;;;16.60;76.20;;;;;;4806209;29;20058;-74
2023/05/10 06:56:48;;;;;;;5.53;1.25;;;16.60;76.30;;;;;;4807847;29;20047;-74
2023/05/10 06:59:16;;;;;;;3.95;1.10;;;16.60;76.40;;;;;;4790935;29;20356;-76
2023/05/10 07:01:42;;;;;;;6.07;1.30;;;16.70;76.50;;;;;;4789857;29;20047;-82
2023/05/10 07:04:08;;;;;;;3.80;0.75;;;16.60;76.50;;;;;;4785283;29;20488;-77
2023/05/10 07:06:34;;;;;;;4.82;1.17;;;16.60;76.50;;;;;;4806073;29;20385;-77
2023/05/10 07:09:00;;;;;;;4.20;0.90;;;16.60;76.50;;;;;;4807920;29;20058;-74
2023/05/10 07:11:26;;;;;;;9.95;1.30;;;16.60;76.60;;;;;;4807741;29;20555;-74
2023/05/10 07:13:52;;;;;;;11.60;1.45;;;16.60;76.60;;;;;;4791804;29;20159;-76
2023/05/10 07:16:18;;;;;;;7.47;1.20;;;16.60;76.60;;;;;;4807455;29;20444;-74
2023/05/10 07:18:44;;;;;;;5.75;0.75;;;16.60;76.60;;;;;;4792013;29;20055;-75
2023/05/10 07:21:10;;;;;;;6.28;1.02;;;16.60;76.60;;;;;;4811515;29;20069;-75
2023/05/10 07:23:36;;;;;;;4.20;1.00;;;16.60;76.50;;;;;;4811325;29;20138;-78
2023/05/10 07:26:02;;;;;;;3.42;1.27;;;16.60;76.40;;;;;;4810986;29;20050;-78
2023/05/10 07:28:27;;;;;;;5.07;1.05;;;16.60;76.40;;;;;;4811805;29;20063;-79
2023/05/10 07:30:53;;;;;;;2.55;1.15;;;16.60;76.40;;;;;;4811043;29;20108;-78
2023/05/10 07:33:19;;;;;;;3.15;1.50;;;16.60;76.30;;;;;;4795991;29;20351;-79
2023/05/10 07:35:45;;;;;;;2.33;0.80;;;16.50;76.30;;;;;;4780820;29;20069;-74
2023/05/10 07:38:10;;;;;;;3.08;1.08;;;16.60;76.40;;;;;;4810702;29;20063;-77
2023/05/10 07:40:37;;;;;;;2.20;0.95;;;16.60;76.30;;;;;;4811216;29;20066;-75
2023/05/10 07:43:03;;;;;;;5.20;1.20;;;16.60;76.40;;;;;;4811179;29;20200;-73
2023/05/10 07:45:29;;;;;;;3.50;1.60;;;16.60;76.50;;;;;;4794621;29;20471;-76
2023/05/10 07:47:55;;;;;;;3.83;1.30;;;16.60;76.50;;;;;;4810816;29;20059;-75
2023/05/10 07:50:21;;;;;;;3.17;1.15;;;16.60;76.50;;;;;;4810816;29;20050;-75
2023/05/10 07:52:47;;;;;;;5.00;1.40;;;16.60;77.00;;;;;;4810773;29;20107;-74
2023/05/10 07:55:13;;;;;;;5.95;1.60;;;16.60;76.50;;;;;;4810794;29;20054;-74
2023/05/10 07:57:39;;;;;;;7.93;2.05;;;16.60;76.60;;;;;;4809807;29;20043;-72
2023/05/10 08:00:06;;;;;;;9.88;2.63;;;16.60;76.70;;;;;;4810358;29;20066;-74
2023/05/10 08:02:34;;;;;;;15.35;2.83;;;16.60;76.80;;;;;;4794653;29;20055;-76
2023/05/10 08:05:00;;;;;;;18.90;2.78;;;16.60;76.80;;;;;;4810630;29;20047;-73
2023/05/10 08:07:26;;;;;;;17.45;2.67;;;16.60;76.80;;;;;;4794636;29;20061;-74
2023/05/10 08:09:52;;;;;;;24.30;3.28;;;16.70;76.80;;;;;;4810047;29;20046;-74
2023/05/10 08:12:17;;;;;;;16.00;3.42;;;16.70;76.80;;;;;;4810749;29;20043;-77
2023/05/10 08:14:43;;;;;;;11.55;2.92;;;16.70;76.80;;;;;;4810251;29;20059;-78
2023/05/10 08:17:09;;;;;;;13.02;3.22;;;16.70;76.70;;;;;;4810295;29;20047;-73
2023/05/10 08:19:34;;;;;;;9.10;2.75;;;16.70;76.70;;;;;;4809537;29;20074;-78
2023/05/10 08:22:00;;;;;;;5.25;2.40;;;16.70;76.60;;;;;;4809949;29;20551;-76
2023/05/10 08:24:26;;;;;;;6.82;2.00;;;16.70;76.60;;;;;;4807773;29;20103;-78
2023/05/10 08:26:52;;;;;;;11.73;2.38;;;16.70;76.60;;;;;;4793745;29;20057;-79
2023/05/10 08:29:17;;;;;;;9.73;2.13;;;16.70;76.70;;;;;;4794083;29;20172;-75
2023/05/10 08:31:43;;;;;;;11.55;2.70;;;16.70;76.70;;;;;;4809700;29;20047;-73
2023/05/10 08:34:09;;;;;;;14.77;3.33;;;16.70;76.60;;;;;;4810067;29;20409;-74
2023/05/10 08:36:35;;;;;;;9.82;2.60;;;16.70;76.60;;;;;;4810075;29;20043;-76
2023/05/10 08:39:15;;;;;;;15.23;3.17;;;16.70;76.50;;;;;;4786261;29;20102;-80
2023/05/10 08:45:42;;;;;;;15.05;3.15;;;16.80;77.10;;;;;;4738954;30;20404;-79
2023/05/10 09:27:45;;;;;;;14.70;4.07;;;16.90;76.70;;;;;;4807827;29;20071;-79
2023/05/10 09:30:30;;;;;;;15.05;3.50;;;16.90;76.70;;;;;;4806850;29;20063;-79
2023/05/10 09:32:57;;;;;;;13.30;4.65;;;16.90;77.00;;;;;;4808825;29;20054;-77
2023/05/10 09:35:35;;;;;;;11.90;4.05;;;16.90;77.10;;;;;;4815197;29;20097;-77
2023/05/10 09:38:07;;;;;;;9.13;3.28;;;16.90;77.00;;;;;;4796461;29;20148;-80
2023/05/10 09:40:36;;;;;;;9.60;3.08;;;17.00;77.10;;;;;;4827027;29;20125;-79
2023/05/10 09:43:17;;;;;;;13.57;3.15;;;17.10;77.00;;;;;;4807095;29;20089;-78
2023/05/10 09:45:51;;;;;;;9.70;3.40;;;17.10;76.80;;;;;;4810687;29;20062;-79
2023/05/10 09:48:16;;;;;;;;;;;17.10;76.60;;;;;;4784526;29;20049;-78
2023/05/10 09:50:57;;;;;;;9.23;3.20;;;17.10;76.50;;;;;;4792808;29;19929;-79
2023/05/10 09:53:25;;;;;;;5.70;2.63;;;17.10;76.40;;;;;;4778224;29;20074;-81
2023/05/10 09:56:00;;;;;;;11.05;2.70;;;17.10;76.30;;;;;;4777672;29;20054;-78
2023/05/10 10:02:31;;;;;;;6.07;2.75;;;17.20;76.10;;;;;;4807857;29;20497;-79
2023/05/10 10:11:19;;;;;;;7.90;3.75;;;17.10;75.50;;;;;;3038589;27;20374;-75
2023/05/10 10:13:44;;;;;;;7.28;4.10;;;17.10;75.50;;;;;;4808465;29;20096;-74
2023/05/10 10:16:10;;;;;;;7.68;4.15;;;17.10;75.60;;;;;;4808492;29;20047;-76
2023/05/10 10:18:39;;;;;;;11.05;4.13;;;17.10;75.60;;;;;;4808437;29;20079;-75
2023/05/10 10:21:09;;;;;;;7.85;3.78;;;17.10;75.70;;;;;;4792520;29;20065;-75
2023/05/10 10:23:37;;;;;;;8.68;3.92;;;17.00;75.70;;;;;;4808220;29;20388;-76
2023/05/10 10:26:04;;;;;;;10.07;3.78;;;17.00;75.80;;;;;;4791761;29;20118;-76
2023/05/10 10:28:44;;;;;;;9.55;3.67;;;17.00;76.00;;;;;;4807076;29;20455;-76
2023/05/10 10:31:27;;;;;;;13.60;3.85;;;17.10;76.10;;;;;;4807778;29;20130;-74
2023/05/10 10:34:27;;;;;;;14.75;5.15;;;17.00;76.10;;;;;;4791137;29;20065;-79
2023/05/10 10:36:54;;;;;;;12.15;3.95;;;17.10;76.10;;;;;;4792219;29;20065;-80
2023/05/10 10:39:21;;;;;;;9.93;3.50;;;17.00;76.10;;;;;;4791872;29;20490;-79
2023/05/10 10:41:52;;;;;;;11.07;3.63;;;17.00;76.10;;;;;;4808498;29;20053;-79
2023/05/10 10:44:25;;;;;;;10.63;4.00;;;17.00;76.00;;;;;;4776509;29;20531;-79
2023/05/10 10:47:05;;;;;;;10.82;3.70;;;17.10;76.10;;;;;;4791328;29;20050;-79
2023/05/10 10:49:41;;;;;;;11.63;4.25;;;17.10;76.10;;;;;;4776893;29;20051;-79
2023/05/10 10:52:33;;;;;;;9.05;3.58;;;17.00;76.00;;;;;;4776686;29;20184;-79
2023/05/10 10:55:10;;;;;;;4.93;3.03;;;17.00;76.00;;;;;;4791836;29;20420;-80
2023/05/10 10:57:42;;;;;;;8.70;3.10;;;17.00;76.10;;;;;;4776933;29;20050;-79
2023/05/10 11:00:28;;;;;;;8.75;3.58;;;17.10;76.10;;;;;;4775100;29;20097;-78
2023/05/10 11:03:02;;;;;;;6.55;3.00;;;17.10;76.10;;;;;;4759466;30;20134;-79
2023/05/10 11:05:35;;;;;;;5.97;2.60;;;17.10;76.20;;;;;;4801933;29;20086;-79
2023/05/10 11:08:10;;;;;;;6.78;3.20;;;17.10;76.10;;;;;;4774115;30;20059;-79
2023/05/10 11:10:36;;;;;;;6.10;2.75;;;17.10;76.10;;;;;;4772106;29;20382;-79
2023/05/10 11:13:07;;;;;;;7.10;3.20;;;17.10;76.10;;;;;;4807776;29;20054;-79
2023/05/10 11:15:37;;;;;;;6.07;3.50;;;17.10;76.10;;;;;;4777135;29;20512;-79
2023/05/10 11:18:29;;;;;;;9.23;3.10;;;17.10;76.10;;;;;;4776470;29;20124;-78
2023/05/10 11:21:02;;;;;;;8.02;2.60;;;17.10;76.10;;;;;;4789019;29;20459;-76
2023/05/10 11:23:33;;;;;;;9.27;3.28;;;17.10;76.00;;;;;;4806999;29;20078;-78
2023/05/10 11:26:01;;;;;;;14.45;4.20;;;17.10;76.00;;;;;;4808236;29;20057;-75
2023/05/10 11:28:27;;;;;;;9.93;3.42;;;17.10;76.00;;;;;;4788859;30;20055;-75
2023/05/10 11:30:54;;;;;;;16.80;4.85;;;17.10;75.90;;;;;;4789841;30;20047;-74
2023/05/10 11:33:20;;;;;;;16.92;5.18;;;17.00;76.00;;;;;;4792728;29;20082;-72
2023/05/10 11:35:46;;;;;;;23.00;5.70;;;17.00;76.40;;;;;;4791783;29;20113;-75
2023/05/10 11:38:13;;;;;;;31.10;6.38;;;17.10;76.50;;;;;;4807632;29;20137;-73
2023/05/10 11:40:40;;;;;;;16.90;4.75;;;17.10;76.60;;;;;;4807452;29;20051;-74
2023/05/10 11:43:06;;;;;;;17.85;4.30;;;17.10;76.50;;;;;;4807269;29;20051;-72
2023/05/10 11:45:33;;;;;;;13.60;4.45;;;17.10;76.40;;;;;;4807229;29;20479;-78
2023/05/10 11:47:59;;;;;;;13.52;5.28;;;17.10;76.20;;;;;;4791620;29;20055;-78
2023/05/10 11:50:26;;;;;;;11.82;6.13;;;17.10;75.80;;;;;;4807551;29;20057;-73
2023/05/10 11:52:52;;;;;;;9.07;6.05;;;17.10;75.00;;;;;;4807288;29;20534;-77
2023/05/10 11:55:19;;;;;;;7.90;6.13;;;17.10;74.50;;;;;;4807313;29;20119;-78
2023/05/10 11:57:45;;;;;;;10.57;6.68;;;17.00;74.70;;;;;;4790793;29;20057;-76
2023/05/10 12:00:15;;;;;;;8.02;6.30;;;17.00;74.70;;;;;;4807309;29;20058;-77
2023/05/10 12:02:41;;;;;;;9.95;7.03;;;16.90;74.80;;;;;;4806722;29;20055;-77
2023/05/10 12:05:07;;;;;;;9.25;7.20;;;16.90;75.00;;;;;;4802670;29;20050;-77
2023/05/10 12:07:33;;;;;;;10.52;6.78;;;16.90;74.70;;;;;;4810661;29;20047;-76
2023/05/10 12:10:14;;;;;;;10.07;6.57;;;16.90;74.70;;;;;;4810526;29;20073;-76
2023/05/10 12:12:42;;;;;;;10.73;7.60;;;16.80;75.00;;;;;;4810426;29;20169;-77
2023/05/10 12:15:17;;;;;;;7.63;6.35;;;16.80;75.30;;;;;;4810870;29;20053;-76
2023/05/10 12:17:44;;;;;;;11.05;6.40;;;16.80;75.40;;;;;;4810438;29;20086;-76
2023/05/10 12:20:19;;;;;;;7.07;5.53;;;16.90;75.50;;;;;;4794672;29;20133;-78
2023/05/10 12:22:56;;;;;;;8.82;6.15;;;16.90;75.50;;;;;;4810113;29;20051;-77
2023/05/10 12:25:24;;;;;;;15.80;6.00;;;17.00;75.60;;;;;;4794275;29;20062;-75
2023/05/10 12:27:55;;;;;;;9.80;5.50;;;17.00;75.70;;;;;;4810237;29;20466;-80
2023/05/10 12:30:25;;;;;;;11.02;6.10;;;17.00;75.70;;;;;;4779465;29;20047;-80
2023/05/10 12:32:52;;;;;;;15.63;8.93;;;17.00;76.00;;;;;;4810152;29;20042;-76
2023/05/10 12:35:23;;;;;;;16.67;8.18;;;17.10;76.40;;;;;;4808984;29;20039;-81
2023/05/10 12:37:50;;;;;;;20.92;7.85;;;17.10;76.70;;;;;;4778720;29;20367;-73
2023/05/10 12:40:16;;;;;;;19.77;12.75;;;17.10;76.60;;;;;;4804731;29;20070;-72
2023/05/10 12:42:43;;;;;;;29.63;16.95;;;17.20;77.10;;;;;;4809727;29;20465;-77
2023/05/10 12:45:09;;;;;;;41.17;23.15;;;17.20;77.40;;;;;;4809482;29;20051;-76
2023/05/10 12:47:35;;;;;;;17.63;10.82;;;17.30;77.30;;;;;;4809238;29;20047;-78
2023/05/10 12:50:02;;;;;;;14.75;6.82;;;17.30;76.60;;;;;;4794256;29;20106;-74
2023/05/10 12:52:28;;;;;;;7.93;4.90;;;17.30;75.80;;;;;;4809845;29;20103;-75
2023/05/10 12:54:54;;;;;;;7.63;4.68;;;17.20;75.00;;;;;;4793240;29;20059;-77
2023/05/10 12:57:20;;;;;;;6.28;5.22;;;17.20;75.00;;;;;;4809763;29;20134;-81
2023/05/10 12:59:46;;;;;;;7.15;5.95;;;17.10;75.10;;;;;;4809911;29;20054;-79
2023/05/10 13:02:12;;;;;;;8.82;5.75;;;17.10;75.40;;;;;;4794191;29;20119;-76
2023/05/10 13:04:39;;;;;;;11.68;7.40;;;17.10;75.50;;;;;;4809434;29;20063;-77
2023/05/10 13:07:08;;;;;;;13.57;8.05;;;17.00;75.30;;;;;;4809476;29;20043;-73
2023/05/10 13:09:34;;;;;;;20.25;8.10;;;17.00;75.40;;;;;;4808138;29;20098;-74
2023/05/10 13:12:00;;;;;;;25.08;9.07;;;17.00;75.30;;;;;;4804221;29;20138;-70
2023/05/10 13:14:26;;;;;;;19.80;8.02;;;17.00;75.20;;;;;;4809641;29;20047;-73
2023/05/10 13:16:51;;;;;;;23.75;8.07;;;17.00;75.30;;;;;;4809104;29;20212;-71
2023/05/10 13:19:17;;;;;;;18.60;7.78;;;17.00;75.40;;;;;;4809219;29;20061;-72
2023/05/10 13:21:44;;;;;;;19.10;7.15;;;17.00;76.00;;;;;;4809237;29;20078;-71
2023/05/10 13:24:13;;;;;;;17.30;6.60;;;17.10;75.40;;;;;;4809148;29;20071;-71
2023/05/10 13:26:40;;;;;;;16.20;6.75;;;17.10;75.40;;;;;;4793412;29;20059;-71
2023/05/10 13:29:06;;;;;;;17.90;5.95;;;17.10;75.40;;;;;;4808267;29;20478;-72
2023/05/10 13:31:32;;;;;;;16.73;6.88;;;17.10;75.50;;;;;;4805923;29;20104;-71
2023/05/10 13:33:58;;;;;;;15.13;6.65;;;17.10;75.60;;;;;;4802305;29;20054;-71
2023/05/10 13:36:23;;;;;;;13.90;6.78;;;17.20;75.90;;;;;;4808947;29;20138;-75
2023/05/10 13:38:49;;;;;;;16.45;5.82;;;17.20;75.90;;;;;;4804310;29;20054;-71
2023/05/10 13:41:15;;;;;;;11.32;6.90;;;17.20;76.00;;;;;;4801858;29;20066;-71
2023/05/10 13:43:40;;;;;;;11.93;6.13;;;17.20;76.00;;;;;;4805687;29;20546;-71
2023/05/10 13:46:06;;;;;;;12.52;6.13;;;17.20;76.00;;;;;;4808083;29;20363;-71
2023/05/10 13:48:32;;;;;;;12.32;6.35;;;17.30;76.00;;;;;;4808896;29;20083;-72
2023/05/10 13:50:57;;;;;;;10.52;6.32;;;17.30;75.90;;;;;;4808947;29;20058;-70
2023/05/10 13:53:23;;;;;;;12.27;5.93;;;17.30;75.90;;;;;;4808425;29;20051;-71
2023/05/10 13:55:49;;;;;;;10.73;5.90;;;17.30;75.80;;;;;;4803140;29;20050;-71
2023/05/10 13:58:15;;;;;;;11.32;5.38;;;17.30;75.80;;;;;;4793236;29;20046;-72
2023/05/10 14:00:40;;;;;;;10.75;5.70;;;17.30;75.80;;;;;;4791067;29;20051;-72
2023/05/10 14:03:08;;;;;;;12.10;5.82;;;17.30;75.80;;;;;;4807888;29;20065;-71
2023/05/10 14:05:34;;;;;;;9.52;4.93;;;17.30;75.80;;;;;;4807650;29;20180;-71
2023/05/10 14:08:00;;;;;;;7.55;4.85;;;17.30;75.70;;;;;;4808501;29;20115;-71
2023/05/10 14:10:26;;;;;;;9.95;5.00;;;17.40;75.60;;;;;;4808127;29;20065;-74
2023/05/10 14:12:51;;;;;;;5.72;4.90;;;17.40;75.50;;;;;;4806689;29;20460;-71
2023/05/10 14:15:17;;;;;;;7.65;4.82;;;17.30;75.40;;;;;;4804293;29;20058;-71
2023/05/10 14:17:43;;;;;;;6.15;4.75;;;17.30;75.40;;;;;;4807731;29;20047;-74
2023/05/10 14:20:09;;;;;;;6.00;4.60;;;17.30;75.40;;;;;;4807549;29;20047;-74
2023/05/10 14:22:35;;;;;;;7.35;5.05;;;17.30;75.40;;;;;;4806979;29;20523;-74
2023/05/10 14:25:01;;;;;;;4.10;3.80;;;17.30;75.50;;;;;;4807837;29;20043;-70
2023/05/10 14:27:27;;;;;;;5.90;4.30;;;17.30;75.60;;;;;;4792212;29;20058;-71
2023/05/10 14:29:56;;;;;;;4.38;3.92;;;17.20;75.70;;;;;;4807623;29;20089;-71
2023/05/10 14:32:21;;;;;;;5.15;4.65;;;17.20;75.80;;;;;;4806854;29;20054;-71
2023/05/10 14:34:47;;;;;;;7.85;4.22;;;17.20;76.10;;;;;;4807700;29;20051;-71
2023/05/10 14:37:14;;;;;;;15.00;5.47;;;17.30;76.00;;;;;;4808186;29;20057;-72
2023/05/10 14:39:40;;;;;;;11.10;5.55;;;17.20;75.70;;;;;;4802415;29;20467;-70
2023/05/10 14:42:05;;;;;;;6.40;4.60;;;17.20;75.30;;;;;;4808026;29;20093;-71
2023/05/10 14:44:31;;;;;;;6.15;4.90;;;17.30;75.00;;;;;;4807865;29;20054;-74
2023/05/10 14:46:57;;;;;;;5.15;4.53;;;17.30;74.20;;;;;;4801794;29;20055;-72
2023/05/10 14:49:25;;;;;;;8.32;4.60;;;17.20;74.30;;;;;;4795434;29;20047;-72
2023/05/10 14:51:51;;;;;;;9.77;4.85;;;17.10;74.50;;;;;;4798745;29;20061;-72
2023/05/10 14:54:17;;;;;;;14.55;5.15;;;17.10;74.70;;;;;;4807619;29;20463;-83
2023/05/10 14:56:42;;;;;;;12.35;4.72;;;17.10;75.00;;;;;;4807451;29;20057;-75
2023/05/10 14:59:08;;;;;;;15.13;5.95;;;17.20;75.00;;;;;;4807626;29;20374;-73
2023/05/10 15:01:37;;;;;;;13.18;5.07;;;17.20;75.00;;;;;;4807508;29;20065;-73
2023/05/10 15:04:03;;;;;;;9.20;5.03;;;17.20;75.20;;;;;;4807521;29;20054;-72
2023/05/10 15:06:33;;;;;;;21.25;5.20;;;17.20;74.90;;;;;;4807019;29;20451;-72
2023/05/10 15:09:00;;;;;;;22.00;5.28;;;17.20;74.60;;;;;;4807912;29;20059;-73
2023/05/10 15:11:26;;;;;;;35.08;6.93;;;17.20;74.60;;;;;;4808020;29;20471;-73
2023/05/10 15:13:52;;;;;;;17.92;5.50;;;17.20;74.60;;;;;;4808073;29;20083;-72
2023/05/10 15:16:18;;;;;;;14.32;4.63;;;17.20;74.60;;;;;;4807724;29;20055;-72
2023/05/10 15:18:43;;;;;;;15.90;4.80;;;17.20;74.50;;;;;;4807644;29;20082;-72
2023/05/10 15:21:09;;;;;;;9.88;4.97;;;17.20;74.40;;;;;;4807021;29;20107;-71
2023/05/10 15:23:35;;;;;;;7.63;4.40;;;17.20;74.60;;;;;;4807977;29;20039;-70
2023/05/10 15:26:02;;;;;;;5.22;3.90;;;17.20;74.60;;;;;;4807754;29;20359;-72
2023/05/10 15:28:28;;;;;;;16.80;4.55;;;17.20;74.40;;;;;;4807757;29;20101;-72
2023/05/10 15:30:54;;;;;;;8.27;4.40;;;17.20;74.30;;;;;;4807411;29;20436;-71
2023/05/10 15:33:20;;;;;;;9.93;4.72;;;17.20;74.20;;;;;;4803266;29;20124;-71
2023/05/10 15:35:45;;;;;;;7.95;4.97;;;17.20;74.10;;;;;;4788762;30;20055;-76
2023/05/10 15:38:11;;;;;;;5.97;4.68;;;17.20;74.10;;;;;;4789730;30;20383;-71
2023/05/10 15:40:37;;;;;;;8.70;5.07;;;17.20;74.00;;;;;;4790969;29;20043;-70
2023/05/10 15:43:04;;;;;;;5.65;4.53;;;17.20;73.90;;;;;;4809534;29;20046;-71
2023/05/10 15:45:30;;;;;;;8.55;4.80;;;17.20;74.00;;;;;;4775250;29;20031;-72
2023/05/10 15:47:57;;;;;;;6.63;5.22;;;17.10;73.90;;;;;;4810608;29;20458;-74
2023/05/10 15:50:22;;;;;;;10.57;5.10;;;17.20;73.90;;;;;;4810919;29;20058;-72
2023/05/10 15:52:48;;;;;;;9.30;5.50;;;17.10;74.30;;;;;;4810867;29;20054;-73
2023/05/10 15:55:14;;;;;;;5.53;5.03;;;17.10;73.90;;;;;;4810323;29;20130;-72
2023/05/10 15:57:41;;;;;;;6.38;4.93;;;17.10;73.80;;;;;;4810474;29;20371;-71
2023/05/10 16:00:09;;;;;;;6.82;5.13;;;17.10;73.90;;;;;;4810680;29;20051;-71
2023/05/10 16:02:36;;;;;;;7.97;5.10;;;17.20;74.00;;;;;;4810435;29;20050;-74
2023/05/10 16:05:02;;;;;;;5.25;4.32;;;17.10;74.10;;;;;;4810696;29;20122;-72
2023/05/10 16:07:27;;;;;;;5.57;4.82;;;17.10;74.20;;;;;;4810553;29;20063;-73
2023/05/10 16:09:53;;;;;;;5.70;5.15;;;17.10;74.20;;;;;;4810727;29;20047;-69
2023/05/10 16:12:19;;;;;;;5.78;5.00;;;17.10;74.30;;;;;;4810280;29;20062;-70
2023/05/10 16:14:45;;;;;;;7.50;5.50;;;17.00;74.20;;;;;;4810387;29;20090;-70
2023/05/10 16:17:11;;;;;;;9.75;5.38;;;17.10;74.40;;;;;;4810793;29;20077;-73
2023/05/10 16:19:37;;;;;;;8.48;5.88;;;17.10;74.60;;;;;;4810610;29;20439;-71
2023/05/10 16:22:02;;;;;;;11.32;6.07;;;17.10;74.60;;;;;;4810328;29;20123;-71
2023/05/10 16:24:29;;;;;;;8.80;5.53;;;17.10;75.00;;;;;;4810415;29;20090;-70
2023/05/10 16:26:54;;;;;;;12.23;6.53;;;17.10;75.00;;;;;;4794593;29;20088;-74
2023/05/10 16:29:20;;;;;;;7.07;5.60;;;17.10;75.30;;;;;;4810266;29;20055;-74
2023/05/10 16:31:46;;;;;;;10.60;6.95;;;17.10;75.80;;;;;;4809714;29;20458;-73
2023/05/10 16:34:11;;;;;;;13.75;6.43;;;17.10;75.60;;;;;;4809791;29;20132;-71
2023/05/10 16:36:37;;;;;;;13.43;6.40;;;17.10;75.70;;;;;;4809892;29;20047;-71
2023/05/10 16:39:03;;;;;;;13.50;5.65;;;17.10;75.90;;;;;;4793842;29;20440;-72
2023/05/10 16:41:32;;;;;;;9.75;5.68;;;17.20;76.20;;;;;;4793109;29;20138;-72
2023/05/10 16:43:59;;;;;;;9.32;5.57;;;17.20;76.40;;;;;;4809808;29;20063;-72
2023/05/10 16:46:25;;;;;;;11.50;5.68;;;17.20;76.50;;;;;;4809666;29;20113;-71
2023/05/10 16:48:50;;;;;;;10.48;5.18;;;17.20;76.60;;;;;;4810059;29;20123;-72
2023/05/10 16:51:16;;;;;;;11.43;5.20;;;17.20;76.70;;;;;;4793762;29;20054;-72
2023/05/10 16:53:42;;;;;;;13.60;5.80;;;17.30;77.00;;;;;;4809850;29;20054;-73
2023/05/10 16:56:08;;;;;;;11.00;5.22;;;17.30;77.10;;;;;;4810056;29;20051;-75
2023/05/10 16:58:33;;;;;;;14.60;6.63;;;17.30;77.20;;;;;;4809885;29;20142;-78
2023/05/10 17:00:59;;;;;;;16.52;5.85;;;17.30;77.10;;;;;;4809941;29;20467;-78
2023/05/10 17:03:25;;;;;;;16.75;6.00;;;17.30;77.10;;;;;;4809742;29;20047;-78
2023/05/10 17:05:51;;;;;;;17.77;5.65;;;17.40;77.00;;;;;;4778848;29;20079;-77
2023/05/10 17:08:16;;;;;;;25.70;5.72;;;17.40;77.10;;;;;;4809303;29;20066;-77
2023/05/10 17:10:42;;;;;;;17.40;6.00;;;17.40;77.70;;;;;;4809535;29;20499;-74
2023/05/10 17:13:08;;;;;;;14.13;5.90;;;17.40;77.10;;;;;;4809558;29;20070;-75
2023/05/10 17:15:37;;;;;;;15.90;5.82;;;17.40;76.70;;;;;;4808672;29;20050;-76
2023/05/10 17:18:04;;;;;;;26.52;6.78;;;17.40;76.10;;;;;;4806622;29;20054;-75
2023/05/10 17:20:29;;;;;;;24.17;6.60;;;17.40;75.80;;;;;;4808952;29;20047;-74
2023/05/10 17:22:55;;;;;;;37.85;8.15;;;17.30;75.60;;;;;;4808829;29;20444;-75
2023/05/10 17:25:21;;;;;;;16.52;6.38;;;17.40;75.30;;;;;;4809048;29;20054;-75
2023/05/10 17:27:46;;;;;;;17.38;6.00;;;17.40;75.10;;;;;;4809170;29;20507;-76
2023/05/10 17:30:12;;;;;;;26.88;6.13;;;17.40;75.00;;;;;;4809484;29;20115;-76
2023/05/10 17:32:38;;;;;;;12.82;5.53;;;17.40;74.80;;;;;;4808964;29;20371;-76
2023/05/10 17:35:05;;;;;;;11.45;5.53;;;17.30;74.60;;;;;;4809295;29;20147;-75
2023/05/10 17:37:40;;;;;;;14.48;5.65;;;17.30;74.50;;;;;;4808992;29;20145;-75
2023/05/10 17:40:07;;;;;;;9.20;5.32;;;17.30;74.40;;;;;;4809110;29;20122;-76
2023/05/10 17:42:32;;;;;;;9.82;5.00;;;17.30;74.40;;;;;;4808955;29;20055;-77
2023/05/10 17:44:58;;;;;;;10.93;5.07;;;17.30;74.40;;;;;;4809026;29;20168;-76
2023/05/10 17:47:24;;;;;;;5.50;4.72;;;17.30;74.30;;;;;;4808888;29;20051;-77
2023/05/10 17:49:49;;;;;;;6.13;4.70;;;17.20;74.20;;;;;;4808835;29;20051;-75
2023/05/10 17:52:15;;;;;;;6.25;4.85;;;17.20;74.20;;;;;;4808518;29;20051;-77
2023/05/10 17:54:41;;;;;;;6.50;4.40;;;17.20;74.10;;;;;;4808826;29;20047;-77
2023/05/10 17:57:06;;;;;;;5.97;4.80;;;17.20;74.00;;;;;;4808465;29;20054;-75
2023/05/10 17:59:32;;;;;;;6.63;4.90;;;17.20;74.00;;;;;;4808710;29;20130;-76
2023/05/10 18:01:58;;;;;;;8.13;5.22;;;17.20;74.00;;;;;;4808980;29;20059;-76
2023/05/10 18:04:24;;;;;;;7.00;4.82;;;17.20;74.00;;;;;;4808127;29;20051;-76
2023/05/10 18:06:50;;;;;;;5.97;4.78;;;17.20;74.00;;;;;;4808478;29;20069;-78
2023/05/10 18:09:16;;;;;;;4.88;4.10;;;17.10;73.90;;;;;;4777381;29;20054;-75
2023/05/10 18:11:42;;;;;;;5.28;4.05;;;17.10;73.80;;;;;;4805086;29;20098;-75
2023/05/10 18:14:08;;;;;;;6.57;4.43;;;17.10;73.80;;;;;;4790507;30;20059;-76
2023/05/10 18:16:34;;;;;;;5.30;4.80;;;17.10;73.80;;;;;;4774466;30;20138;-77
2023/05/10 18:18:59;;;;;;;6.13;4.70;;;17.10;73.80;;;;;;4774771;30;20051;-76
2023/05/10 18:21:25;;;;;;;5.35;4.85;;;17.10;73.70;;;;;;4798138;29;20050;-77
2023/05/10 18:23:51;;;;;;;5.97;4.38;;;17.10;73.80;;;;;;4808619;29;20051;-77
2023/05/10 18:26:17;;;;;;;5.38;4.32;;;17.10;73.70;;;;;;4808205;29;20051;-75
2023/05/10 18:28:42;;;;;;;4.75;4.30;;;17.10;73.70;;;;;;4808430;29;20050;-77
2023/05/10 18:31:08;;;;;;;4.22;3.83;;;17.00;73.60;;;;;;4808546;29;20363;-77
2023/05/10 18:33:34;;;;;;;4.43;4.03;;;17.00;73.50;;;;;;4791759;29;20053;-76
2023/05/10 18:36:01;;;;;;;9.93;4.60;;;17.00;73.30;;;;;;4807921;29;20124;-75
2023/05/10 18:38:26;;;;;;;15.85;4.63;;;17.00;73.10;;;;;;4808401;29;20137;-74
2023/05/10 18:40:52;;;;;;;9.18;4.70;;;17.00;72.60;;;;;;4807632;29;20149;-76
2023/05/10 18:43:18;;;;;;;5.50;4.05;;;16.90;72.40;;;;;;4808169;29;20130;-76
2023/05/10 18:45:44;;;;;;;4.78;4.38;;;16.80;72.50;;;;;;4807427;29;20050;-77
2023/05/10 18:48:09;;;;;;;5.28;4.80;;;16.70;72.70;;;;;;4807832;29;20062;-75
2023/05/10 18:50:35;;;;;;;10.30;4.78;;;16.60;72.70;;;;;;4807662;29;20467;-78
2023/05/10 18:53:01;;;;;;;5.18;4.68;;;16.50;72.70;;;;;;4807090;29;20059;-77
2023/05/10 18:55:27;;;;;;;5.35;4.85;;;16.40;72.80;;;;;;4807700;29;20085;-76
2023/05/10 18:57:53;;;;;;;5.35;4.63;;;16.40;73.10;;;;;;4806835;29;20051;-77
2023/05/10 19:00:19;;;;;;;5.55;5.05;;;16.40;73.30;;;;;;4805486;29;20442;-77
2023/05/10 19:02:45;;;;;;;6.40;4.40;;;16.30;73.30;;;;;;4807505;29;20051;-77
2023/05/10 19:05:13;;;;;;;5.88;5.30;;;16.30;73.40;;;;;;4807409;29;20073;-79
2023/05/10 19:07:42;;;;;;;5.93;5.30;;;16.20;73.60;;;;;;4807881;29;20505;-78
2023/05/10 19:10:12;;;;;;;5.45;4.95;;;16.20;73.90;;;;;;4807651;29;20070;-79
